Time;durP1;ratioP1;P1;durP2;ratioP2;P2;SDS_P1;SDS_P2;PMS_P1;PMS_P2;Temp;Humidity;BMP_temperature;BMP_pressure;BME280_temperature;BME280_humidity;BME280_pressure;Samples;Min_cycle;Max_cycle;Signal;HPM_P1;HPM_P2
2023/07/24 00:02:09;;;;;;;0.80;0.80;;;22.60;60.90;;;;;;4974300;28;20055;-71
2023/07/24 00:04:37;;;;;;;1.02;0.90;;;22.60;60.30;;;;;;4974712;28;20038;-72
2023/07/24 00:07:03;;;;;;;1.38;1.10;;;22.60;60.90;;;;;;4974317;28;20031;-74
2023/07/24 00:09:29;;;;;;;0.80;0.80;;;22.60;60.90;;;;;;4974477;28;20090;-74
2023/07/24 00:11:55;;;;;;;1.40;1.30;;;22.60;60.90;;;;;;4974260;28;20093;-73
2023/07/24 00:14:20;;;;;;;0.88;0.88;;;22.60;60.90;;;;;;4974190;28;20026;-74
2023/07/24 00:16:46;;;;;;;1.33;1.08;;;22.60;60.90;;;;;;4974622;28;20043;-71
2023/07/24 00:19:12;;;;;;;1.20;0.82;;;22.60;60.90;;;;;;4974280;28;20031;-71
2023/07/24 00:21:38;;;;;;;1.88;0.80;;;22.60;60.90;;;;;;4974190;28;20074;-71
2023/07/24 00:24:04;;;;;;;1.10;0.93;;;22.60;60.90;;;;;;4974130;28;20067;-71
2023/07/24 00:26:29;;;;;;;1.33;1.10;;;22.60;60.90;;;;;;4974175;28;20031;-72
2023/07/24 00:28:55;;;;;;;1.10;1.00;;;22.60;60.90;;;;;;4974092;28;20053;-72
2023/07/24 00:31:20;;;;;;;1.10;1.00;;;22.60;60.90;;;;;;4974068;28;20057;-71
2023/07/24 00:33:46;;;;;;;0.60;0.60;;;22.50;60.80;;;;;;4974582;28;20023;-71
2023/07/24 00:36:12;;;;;;;0.85;0.82;;;22.50;60.80;;;;;;4973786;28;20494;-71
2023/07/24 00:38:38;;;;;;;1.10;0.77;;;22.50;60.90;;;;;;4973909;28;20030;-72
2023/07/24 00:41:04;;;;;;;1.00;0.80;;;22.50;60.80;;;;;;4974004;28;20027;-73
2023/07/24 00:43:30;;;;;;;0.93;0.82;;;22.60;60.90;;;;;;4956429;28;20058;-72
2023/07/24 00:45:56;;;;;;;0.80;0.80;;;22.50;60.80;;;;;;4973940;28;20482;-72
2023/07/24 00:48:22;;;;;;;1.08;0.80;;;22.50;60.80;;;;;;4973787;28;20396;-72
2023/07/24 00:50:48;;;;;;;0.88;0.88;;;22.50;60.80;;;;;;4973752;28;20098;-72
2023/07/24 00:53:17;;;;;;;0.60;0.60;;;22.50;60.80;;;;;;4973575;28;20405;-72
2023/07/24 00:55:43;;;;;;;1.08;0.98;;;22.50;60.80;;;;;;4973638;28;20023;-70
2023/07/24 00:58:11;;;;;;;0.90;0.82;;;22.50;60.80;;;;;;4973653;28;20249;-72
2023/07/24 01:00:38;;;;;;;0.70;0.70;;;22.50;60.90;;;;;;4973508;28;20425;-72
2023/07/24 01:03:04;;;;;;;1.20;0.95;;;22.50;60.90;;;;;;4956783;28;20019;-72
2023/07/24 01:05:30;;;;;;;0.70;0.70;;;22.50;60.90;;;;;;4973399;28;20030;-71
2023/07/24 01:07:57;;;;;;;0.82;0.70;;;22.40;60.80;;;;;;4973450;28;20031;-71
2023/07/24 01:10:23;;;;;;;0.65;0.65;;;22.40;60.80;;;;;;4973560;28;20392;-72
2023/07/24 01:12:56;;;;;;;1.65;0.90;;;21.70;60.40;;;;;;4973435;28;20031;-72
2023/07/24 01:15:22;;;;;;;1.08;0.82;;;22.40;60.80;;;;;;4973248;28;20031;-73
2023/07/24 01:17:53;;;;;;;0.85;0.85;;;22.40;60.80;;;;;;4973196;28;20035;-73
2023/07/24 01:20:21;;;;;;;1.30;1.02;;;22.50;60.80;;;;;;4973333;28;20054;-74
2023/07/24 01:23:08;;;;;;;0.88;0.80;;;22.40;60.80;;;;;;4973233;28;20548;-74
2023/07/24 01:25:37;;;;;;;1.05;0.77;;;22.50;60.90;;;;;;4973160;28;20035;-73
2023/07/24 01:28:07;;;;;;;2.28;0.82;;;22.50;60.80;;;;;;4973374;28;20019;-73
2023/07/24 01:30:33;;;;;;;;;;;22.40;60.80;;;;;;4973921;28;20569;-72
2023/07/24 01:32:59;;;;;;;0.90;0.70;;;22.40;60.80;;;;;;4973350;28;19906;-72
2023/07/24 01:35:27;;;;;;;0.65;0.60;;;22.40;60.80;;;;;;4973016;28;20026;-72
2023/07/24 01:37:56;;;;;;;0.80;0.60;;;22.40;60.80;;;;;;4973219;28;20067;-72
2023/07/24 01:40:22;;;;;;;0.88;0.77;;;22.40;60.80;;;;;;4972950;28;20478;-72
2023/07/24 01:42:49;;;;;;;1.00;0.80;;;22.40;60.80;;;;;;4973103;28;20031;-71
2023/07/24 01:45:15;;;;;;;1.10;0.80;;;22.40;61.50;;;;;;4972450;28;20124;-72
2023/07/24 01:47:41;;;;;;;0.88;0.88;;;22.40;60.70;;;;;;4972807;28;20067;-72
2023/07/24 01:50:07;;;;;;;0.50;0.50;;;22.40;60.80;;;;;;4972851;28;20371;-71
2023/07/24 01:52:32;;;;;;;0.82;0.82;;;22.40;60.80;;;;;;4951480;28;20512;-71
2023/07/24 01:54:58;;;;;;;0.75;0.75;;;22.40;60.80;;;;;;4992191;28;20029;-71
2023/07/24 01:57:24;;;;;;;0.65;0.65;;;22.40;60.80;;;;;;4992069;28;20129;-72
2023/07/24 01:59:49;;;;;;;1.73;0.90;;;22.40;60.80;;;;;;4992742;28;20022;-71
2023/07/24 02:02:15;;;;;;;0.77;0.77;;;22.40;60.80;;;;;;4992474;28;20030;-71
2023/07/24 02:04:41;;;;;;;1.13;0.80;;;22.30;60.70;;;;;;4992227;28;20464;-71
2023/07/24 02:07:06;;;;;;;0.82;0.82;;;22.40;60.80;;;;;;4992480;28;20027;-72
2023/07/24 02:09:32;;;;;;;0.82;0.73;;;22.30;60.80;;;;;;4992178;28;20022;-72
2023/07/24 02:11:57;;;;;;;1.10;0.82;;;22.30;60.80;;;;;;4992181;28;20436;-74
2023/07/24 02:14:24;;;;;;;1.52;0.82;;;22.30;60.80;;;;;;4992111;28;20426;-72
2023/07/24 02:16:49;;;;;;;0.70;0.70;;;22.30;60.70;;;;;;4991945;28;20035;-71
2023/07/24 02:19:15;;;;;;;1.00;0.80;;;22.30;60.70;;;;;;4992028;28;20025;-71
2023/07/24 02:21:40;;;;;;;0.70;0.70;;;22.30;60.70;;;;;;4991978;28;20218;-71
2023/07/24 02:24:06;;;;;;;1.13;0.82;;;22.30;60.70;;;;;;4991931;28;20425;-71
2023/07/24 02:26:32;;;;;;;0.70;0.70;;;22.30;60.70;;;;;;4993669;28;20030;-71
2023/07/24 02:28:57;;;;;;;2.35;0.70;;;22.30;60.70;;;;;;4996151;28;20014;-71
2023/07/24 02:31:23;;;;;;;0.98;0.77;;;22.30;60.70;;;;;;4995642;28;20034;-72
2023/07/24 02:33:49;;;;;;;1.95;1.00;;;22.30;60.80;;;;;;4995586;28;20062;-71
2023/07/24 02:36:15;;;;;;;1.05;0.85;;;22.30;60.70;;;;;;4995637;28;20069;-71
2023/07/24 02:38:40;;;;;;;0.65;0.63;;;22.30;60.70;;;;;;4995484;28;20030;-71
2023/07/24 02:41:06;;;;;;;1.33;0.90;;;22.10;79.80;;;;;;4995536;28;20038;-72
2023/07/24 02:43:32;;;;;;;1.42;0.68;;;22.30;60.70;;;;;;4995446;28;20030;-72
2023/07/24 02:46:01;;;;;;;0.80;0.80;;;22.30;60.70;;;;;;4995378;28;20385;-71
2023/07/24 02:48:27;;;;;;;0.77;0.75;;;22.20;60.60;;;;;;4995619;28;20053;-71
2023/07/24 02:50:53;;;;;;;1.00;0.90;;;22.20;60.60;;;;;;4995269;28;20504;-71
2023/07/24 02:53:18;;;;;;;0.80;0.63;;;22.20;60.60;;;;;;4981127;28;20099;-70
2023/07/24 02:55:44;;;;;;;0.90;0.75;;;22.40;79.90;;;;;;4976026;28;20130;-71
2023/07/24 02:58:12;;;;;;;0.70;0.70;;;22.20;60.60;;;;;;4975794;28;20482;-71
2023/07/24 03:00:38;;;;;;;0.90;0.80;;;22.30;60.70;;;;;;4975616;28;20019;-71
2023/07/24 03:03:04;;;;;;;0.80;0.80;;;22.20;60.70;;;;;;4975555;28;20469;-71
2023/07/24 03:05:30;;;;;;;0.90;0.70;;;22.20;60.60;;;;;;4975894;28;20027;-71
2023/07/24 03:07:56;;;;;;;0.98;0.75;;;22.20;60.60;;;;;;4975864;28;20426;-71
2023/07/24 03:10:23;;;;;;;0.82;0.82;;;22.20;60.60;;;;;;4975806;28;20433;-71
2023/07/24 03:12:49;;;;;;;1.02;0.90;;;22.20;60.60;;;;;;4975657;28;20099;-72
2023/07/24 03:15:15;;;;;;;0.75;0.75;;;22.20;60.60;;;;;;4975651;28;20039;-71
2023/07/24 03:17:42;;;;;;;0.82;0.82;;;22.20;60.60;;;;;;4975316;28;20066;-71
2023/07/24 03:20:15;;;;;;;0.82;0.82;;;22.20;60.60;;;;;;4975557;28;20386;-71
2023/07/24 03:22:42;;;;;;;0.88;0.88;;;22.20;60.60;;;;;;4975157;28;20046;-71
2023/07/24 03:25:08;;;;;;;0.80;0.80;;;22.20;60.60;;;;;;4975722;28;20031;-74
2023/07/24 03:27:34;;;;;;;1.13;1.02;;;22.20;60.60;;;;;;4975508;28;20026;-74
2023/07/24 03:30:00;;;;;;;0.82;0.82;;;22.20;60.50;;;;;;4975288;28;20058;-75
2023/07/24 03:32:26;;;;;;;1.20;0.93;;;22.20;60.60;;;;;;4975197;28;20442;-74
2023/07/24 03:34:52;;;;;;;1.58;1.15;;;22.20;61.20;;;;;;4975211;28;20082;-75
2023/07/24 03:37:18;;;;;;;0.73;0.73;;;22.20;60.60;;;;;;4974136;28;20034;-72
2023/07/24 03:39:43;;;;;;;1.48;0.98;;;22.20;60.60;;;;;;4974889;28;20022;-71
2023/07/24 03:42:12;;;;;;;1.17;0.95;;;22.20;60.60;;;;;;4975031;28;20030;-71
2023/07/24 03:44:40;;;;;;;0.93;0.90;;;22.20;60.60;;;;;;4974848;28;20031;-71
2023/07/24 03:47:06;;;;;;;0.85;0.70;;;22.10;60.40;;;;;;4974892;28;20031;-72
2023/07/24 03:49:31;;;;;;;1.10;1.00;;;22.20;60.50;;;;;;4975601;28;20112;-72
2023/07/24 03:51:57;;;;;;;2.42;1.20;;;22.10;60.40;;;;;;4974752;28;20050;-72
2023/07/24 03:54:22;;;;;;;1.05;1.05;;;22.20;60.60;;;;;;4975425;28;20062;-72
2023/07/24 03:56:48;;;;;;;1.33;1.23;;;22.20;60.50;;;;;;4957291;28;20521;-71
2023/07/24 03:59:14;;;;;;;1.45;1.30;;;22.20;60.50;;;;;;4974689;28;20015;-71
2023/07/24 04:01:39;;;;;;;1.85;1.58;;;22.40;79.70;;;;;;5288109;23;20411;-83
2023/07/24 04:07:27;;;;;;;1.90;1.80;;;22.10;60.40;;;;;;4974985;28;20096;-82
2023/07/24 04:09:52;;;;;;;2.40;2.20;;;22.50;60.80;;;;;;4974673;28;20031;-83
2023/07/24 04:12:18;;;;;;;2.50;2.30;;;22.10;70.60;;;;;;4974509;28;20462;-82
2023/07/24 04:14:43;;;;;;;4.22;3.08;;;22.10;60.60;;;;;;4974438;28;20037;-83
2023/07/24 04:17:09;;;;;;;3.58;3.28;;;22.10;60.60;;;;;;4974275;28;20477;-83
2023/07/24 04:19:35;;;;;;;3.33;3.13;;;21.90;79.50;;;;;;4974542;28;20026;-83
2023/07/24 04:22:01;;;;;;;3.50;3.30;;;22.10;60.60;;;;;;4974758;28;20073;-83
2023/07/24 04:24:27;;;;;;;4.45;4.15;;;22.10;60.60;;;;;;4974603;28;20385;-84
2023/07/24 04:26:53;;;;;;;4.70;4.40;;;22.10;60.60;;;;;;4974392;28;20099;-84
2023/07/24 04:29:23;;;;;;;4.40;4.10;;;22.10;60.60;;;;;;4974432;28;20041;-83
2023/07/24 04:31:50;;;;;;;4.55;4.25;;;22.10;60.60;;;;;;4974378;28;20027;-83
2023/07/24 04:34:15;;;;;;;5.68;5.18;;;22.10;60.60;;;;;;4974438;28;20023;-84
2023/07/24 04:36:41;;;;;;;5.10;4.70;;;22.10;60.60;;;;;;4956836;28;20130;-82
2023/07/24 04:39:07;;;;;;;5.60;5.20;;;22.10;60.60;;;;;;4974017;28;20550;-84
2023/07/24 04:41:32;;;;;;;6.18;5.68;;;22.10;60.60;;;;;;4972907;28;20030;-84
2023/07/24 04:43:58;;;;;;;5.60;5.25;;;22.00;60.60;;;;;;4974071;28;20050;-84
2023/07/24 04:46:23;;;;;;;5.85;5.45;;;22.00;60.70;;;;;;4974140;28;20031;-84
2023/07/24 04:48:49;;;;;;;6.18;5.60;;;22.10;60.60;;;;;;4973708;28;20034;-84
2023/07/24 04:51:14;;;;;;;5.60;5.13;;;22.00;60.60;;;;;;4974078;28;20027;-84
2023/07/24 04:53:40;;;;;;;6.10;5.60;;;22.00;60.60;;;;;;4974383;28;20039;-84
2023/07/24 04:56:06;;;;;;;5.88;5.38;;;22.00;60.60;;;;;;4973748;28;20034;-83
2023/07/24 04:58:31;;;;;;;6.05;5.60;;;22.00;60.60;;;;;;4973766;28;20141;-84
2023/07/24 05:00:57;;;;;;;6.00;5.60;;;22.00;60.60;;;;;;4973762;28;20055;-84
2023/07/24 05:03:22;;;;;;;5.72;5.32;;;22.00;60.60;;;;;;5007337;28;20495;-84
2023/07/24 05:05:53;;;;;;;6.07;5.55;;;22.00;60.60;;;;;;4995138;28;20028;-84
2023/07/24 05:08:19;;;;;;;6.20;5.70;;;22.00;60.60;;;;;;4995208;28;20111;-83
2023/07/24 05:10:45;;;;;;;5.78;5.32;;;22.00;60.60;;;;;;5012990;28;20542;-83
2023/07/24 05:13:11;;;;;;;5.35;4.93;;;22.00;60.60;;;;;;5012569;28;20026;-83
2023/07/24 05:15:37;;;;;;;5.07;4.68;;;22.00;60.60;;;;;;5013049;28;20424;-84
2023/07/24 05:18:03;;;;;;;5.57;5.07;;;22.00;60.60;;;;;;5012870;28;20034;-82
2023/07/24 05:20:29;;;;;;;5.65;5.15;;;22.00;60.60;;;;;;5012592;28;20105;-82
2023/07/24 05:22:55;;;;;;;5.05;4.65;;;22.00;60.60;;;;;;5013033;28;20109;-82
2023/07/24 05:25:21;;;;;;;4.70;4.30;;;22.00;60.60;;;;;;5012843;28;20022;-81
2023/07/24 05:27:46;;;;;;;4.13;3.83;;;22.00;60.60;;;;;;5012406;28;20026;-79
2023/07/24 05:30:12;;;;;;;4.55;4.25;;;21.90;60.50;;;;;;5012452;28;20064;-80
2023/07/24 05:32:37;;;;;;;4.18;3.80;;;22.00;60.60;;;;;;4994825;28;20037;-81
2023/07/24 05:35:03;;;;;;;4.15;3.85;;;22.00;60.60;;;;;;5012337;28;20037;-77
2023/07/24 05:37:29;;;;;;;4.60;3.97;;;21.90;60.60;;;;;;5012288;28;20069;-78
2023/07/24 05:39:55;;;;;;;3.47;3.28;;;22.00;60.70;;;;;;5012271;28;20064;-78
2023/07/24 05:42:20;;;;;;;4.18;3.88;;;22.00;60.70;;;;;;5012183;28;20472;-78
2023/07/24 05:44:46;;;;;;;3.70;3.42;;;21.90;60.70;;;;;;5012207;28;20038;-78
2023/07/24 05:47:11;;;;;;;3.78;3.30;;;22.00;60.70;;;;;;5012201;28;20373;-75
2023/07/24 05:49:37;;;;;;;3.60;3.25;;;22.00;60.70;;;;;;5012188;28;20072;-75
2023/07/24 05:52:03;;;;;;;3.08;2.85;;;22.00;60.70;;;;;;5012915;28;20526;-81
2023/07/24 05:54:28;;;;;;;3.15;2.95;;;21.90;60.60;;;;;;5012189;28;20478;-80
2023/07/24 05:56:54;;;;;;;3.58;2.70;;;21.80;60.60;;;;;;5012104;28;20038;-81
2023/07/24 05:59:20;;;;;;;3.65;2.80;;;21.90;60.70;;;;;;5012014;28;20018;-82
2023/07/24 06:01:48;;;;;;;2.85;2.65;;;21.90;60.60;;;;;;5013751;28;20468;-81
2023/07/24 06:04:14;;;;;;;3.72;3.13;;;21.90;61.90;;;;;;5016196;28;20028;-81
2023/07/24 06:06:40;;;;;;;4.13;2.53;;;22.00;60.70;;;;;;5016246;28;20094;-81
2023/07/24 06:09:05;;;;;;;2.70;2.50;;;21.90;60.70;;;;;;5016213;28;20046;-81
2023/07/24 06:11:31;;;;;;;2.50;2.30;;;21.90;60.80;;;;;;5016234;28;20026;-81
2023/07/24 06:13:56;;;;;;;3.20;2.47;;;21.90;60.90;;;;;;5016210;28;20590;-80
2023/07/24 06:16:22;;;;;;;2.88;2.47;;;21.90;61.00;;;;;;5016084;28;20052;-82
2023/07/24 06:18:48;;;;;;;3.55;2.50;;;21.90;60.90;;;;;;5017176;28;20017;-78
2023/07/24 06:21:13;;;;;;;2.47;2.28;;;21.90;60.90;;;;;;5005124;28;20053;-83
2023/07/24 06:23:39;;;;;;;3.00;2.15;;;21.90;61.60;;;;;;5015717;28;20022;-85
2023/07/24 06:26:05;;;;;;;2.95;2.63;;;21.90;61.00;;;;;;4998313;28;20021;-85
2023/07/24 06:28:31;;;;;;;2.53;2.22;;;21.90;60.80;;;;;;5014885;28;20499;-80
2023/07/24 06:30:57;;;;;;;3.83;2.35;;;21.90;61.00;;;;;;5016050;28;20033;-86
2023/07/24 06:33:23;;;;;;;3.40;2.20;;;21.90;60.90;;;;;;5016024;28;20025;-82
2023/07/24 06:35:52;;;;;;;2.55;2.00;;;21.90;60.90;;;;;;5015805;28;20392;-82
2023/07/24 06:38:21;;;;;;;2.88;2.15;;;21.90;60.90;;;;;;5015739;28;20479;-82
2023/07/24 06:40:47;;;;;;;3.63;2.20;;;21.90;60.80;;;;;;5015754;28;20111;-77
2023/07/24 06:43:13;;;;;;;3.13;2.00;;;21.90;61.00;;;;;;5015545;28;20172;-77
2023/07/24 06:45:39;;;;;;;2.97;2.10;;;21.90;61.00;;;;;;5015580;28;20848;-76
2023/07/24 06:48:05;;;;;;;2.45;2.25;;;21.90;61.00;;;;;;5015181;28;20048;-79
2023/07/24 06:50:31;;;;;;;1.88;1.77;;;21.90;61.00;;;;;;5015194;28;20022;-78
2023/07/24 06:52:57;;;;;;;2.67;2.20;;;21.90;61.10;;;;;;5014972;28;20021;-78
2023/07/24 06:55:23;;;;;;;2.30;2.10;;;21.90;61.10;;;;;;5015227;28;20022;-77
2023/07/24 06:57:49;;;;;;;2.28;1.88;;;21.90;61.10;;;;;;5014971;28;20030;-78
2023/07/24 07:00:15;;;;;;;2.35;2.15;;;21.90;61.10;;;;;;5015194;28;20076;-76
2023/07/24 07:02:41;;;;;;;3.08;2.40;;;21.90;61.10;;;;;;5015032;28;20046;-76
2023/07/24 07:05:07;;;;;;;3.25;2.08;;;21.90;61.40;;;;;;5015002;28;20097;-76
2023/07/24 07:07:34;;;;;;;2.97;2.28;;;21.90;61.20;;;;;;5014797;28;20510;-78
2023/07/24 07:09:59;;;;;;;2.50;2.30;;;21.90;61.20;;;;;;5014855;28;20101;-75
2023/07/24 07:12:25;;;;;;;2.42;2.05;;;21.90;61.20;;;;;;5014230;28;20385;-78
2023/07/24 07:14:51;;;;;;;2.30;2.10;;;21.90;61.20;;;;;;4996936;28;20384;-80
2023/07/24 07:17:16;;;;;;;2.35;2.10;;;21.90;61.10;;;;;;5014793;28;20049;-86
2023/07/24 07:19:42;;;;;;;4.03;2.10;;;22.00;61.20;;;;;;4997181;28;20539;-79
2023/07/24 07:22:08;;;;;;;3.33;2.08;;;22.00;61.20;;;;;;5014915;28;20424;-78
2023/07/24 07:24:33;;;;;;;2.00;1.90;;;22.00;61.20;;;;;;5014614;28;20029;-80
2023/07/24 07:26:59;;;;;;;2.30;2.10;;;22.00;61.20;;;;;;5014737;28;20169;-78
2023/07/24 07:29:25;;;;;;;2.75;2.55;;;22.00;61.30;;;;;;5014625;28;20484;-78
2023/07/24 07:31:50;;;;;;;2.75;2.03;;;22.00;61.30;;;;;;5014509;28;20033;-78
2023/07/24 07:34:16;;;;;;;3.25;2.40;;;22.00;61.20;;;;;;5014442;28;20025;-78
2023/07/24 07:36:41;;;;;;;5.47;2.20;;;22.00;61.20;;;;;;5014414;28;20122;-80
2023/07/24 07:39:09;;;;;;;4.78;2.70;;;22.00;61.80;;;;;;5014651;28;20022;-79
2023/07/24 07:41:35;;;;;;;3.75;2.40;;;22.00;61.20;;;;;;5014240;28;20032;-78
2023/07/24 07:44:01;;;;;;;3.13;2.40;;;22.00;61.10;;;;;;5014558;28;20062;-80
2023/07/24 07:46:27;;;;;;;3.08;2.00;;;22.00;61.00;;;;;;5014389;28;20099;-77
2023/07/24 07:48:52;;;;;;;2.47;2.20;;;22.10;61.00;;;;;;5014298;28;20033;-83
2023/07/24 07:51:18;;;;;;;2.20;1.92;;;22.10;61.10;;;;;;5013949;28;20433;-80
2023/07/24 07:53:44;;;;;;;2.50;2.30;;;22.10;61.10;;;;;;5013913;28;20116;-81
2023/07/24 07:56:09;;;;;;;4.20;2.17;;;22.10;61.10;;;;;;4995576;28;20053;-79
2023/07/24 07:58:35;;;;;;;4.25;2.78;;;22.10;61.20;;;;;;5013954;28;20018;-78
2023/07/24 08:01:07;;;;;;;2.60;2.40;;;22.10;61.20;;;;;;5013884;28;20631;-80
2023/07/24 08:03:33;;;;;;;3.95;2.65;;;22.10;61.20;;;;;;5013619;28;20092;-79
2023/07/24 08:05:59;;;;;;;2.45;2.25;;;22.10;61.40;;;;;;5013849;28;20088;-79
2023/07/24 08:08:25;;;;;;;3.63;2.35;;;22.10;61.40;;;;;;5013598;28;20038;-86
2023/07/24 08:10:50;;;;;;;2.50;2.25;;;22.10;61.40;;;;;;5013770;28;20097;-83
2023/07/24 08:13:16;;;;;;;3.75;2.50;;;22.10;61.50;;;;;;5013607;28;20117;-78
2023/07/24 08:15:42;;;;;;;4.85;2.22;;;22.10;61.60;;;;;;5013369;28;20101;-78
2023/07/24 08:18:08;;;;;;;4.05;2.30;;;22.10;61.60;;;;;;5013614;28;20428;-77
2023/07/24 08:20:38;;;;;;;3.95;2.30;;;22.10;61.50;;;;;;5014734;28;20009;-77
2023/07/24 08:23:04;;;;;;;4.60;2.30;;;22.10;61.60;;;;;;5013425;28;20030;-76
2023/07/24 08:25:29;;;;;;;3.58;2.55;;;22.10;61.60;;;;;;5013371;28;20033;-76
2023/07/24 08:27:55;;;;;;;3.13;2.38;;;22.10;61.70;;;;;;5013550;28;20037;-79
2023/07/24 08:30:21;;;;;;;7.13;2.80;;;22.10;61.80;;;;;;5013777;28;20026;-78
2023/07/24 08:32:46;;;;;;;4.85;2.75;;;22.20;61.80;;;;;;5013590;28;20111;-78
2023/07/24 08:35:12;;;;;;;3.58;2.25;;;22.20;61.90;;;;;;5013345;28;20048;-79
2023/07/24 08:37:38;;;;;;;3.97;2.33;;;22.10;61.80;;;;;;5013533;28;20225;-79
2023/07/24 08:40:04;;;;;;;4.03;2.55;;;22.10;61.80;;;;;;4995767;28;20026;-78
2023/07/24 08:42:32;;;;;;;5.03;2.65;;;22.20;61.90;;;;;;5013446;28;20388;-79
2023/07/24 08:44:58;;;;;;;2.92;2.35;;;22.20;61.90;;;;;;5013140;28;20089;-78
2023/07/24 08:47:24;;;;;;;3.40;2.38;;;22.10;61.80;;;;;;5013129;28;20089;-78
2023/07/24 08:49:53;;;;;;;3.88;2.50;;;22.20;62.00;;;;;;4995367;28;20616;-76
2023/07/24 08:52:18;;;;;;;2.75;2.15;;;22.10;61.90;;;;;;5013098;28;20113;-78
2023/07/24 08:54:46;;;;;;;3.65;2.10;;;22.20;61.90;;;;;;5012986;28;20021;-78
2023/07/24 08:57:13;;;;;;;11.82;2.42;;;22.20;61.90;;;;;;5012457;28;20037;-79
2023/07/24 08:59:39;;;;;;;2.92;2.08;;;22.20;62.00;;;;;;5012721;28;20508;-79
2023/07/24 09:02:06;;;;;;;3.60;2.30;;;22.20;62.00;;;;;;4996964;28;20424;-79
2023/07/24 09:04:32;;;;;;;3.58;2.13;;;22.20;62.00;;;;;;5012743;28;20018;-79
2023/07/24 09:06:58;;;;;;;4.45;2.75;;;22.20;62.00;;;;;;5013296;28;20036;-78
2023/07/24 09:09:30;;;;;;;4.22;2.42;;;22.20;61.90;;;;;;5012769;28;20021;-78
2023/07/24 09:11:58;;;;;;;2.85;2.45;;;22.20;62.00;;;;;;5012717;28;20034;-79
2023/07/24 09:14:26;;;;;;;3.75;2.63;;;22.20;62.00;;;;;;5012676;28;20465;-79
2023/07/24 09:17:06;;;;;;;4.47;2.45;;;22.20;61.90;;;;;;5012914;28;20404;-79
2023/07/24 09:19:32;;;;;;;;;;;22.20;61.90;;;;;;5013096;28;20076;-75
2023/07/24 09:22:08;;;;;;;3.17;2.25;;;22.20;61.70;;;;;;5012694;28;19905;-79
2023/07/24 09:24:35;;;;;;;3.40;2.03;;;22.30;61.90;;;;;;5012258;28;20062;-78
2023/07/24 09:27:06;;;;;;;5.35;2.70;;;22.30;62.10;;;;;;5012410;28;20030;-80
2023/07/24 09:29:32;;;;;;;3.88;2.20;;;22.30;62.10;;;;;;5012763;28;20516;-80
2023/07/24 09:31:59;;;;;;;3.88;2.10;;;22.30;62.10;;;;;;5012369;28;20064;-80
2023/07/24 09:34:25;;;;;;;5.35;2.30;;;22.30;62.10;;;;;;5012300;28;20148;-80
2023/07/24 09:36:51;;;;;;;5.50;2.80;;;22.30;62.10;;;;;;5011147;28;20100;-78
2023/07/24 09:39:26;;;;;;;4.85;2.63;;;22.30;62.00;;;;;;5012400;28;20104;-80
2023/07/24 09:41:52;;;;;;;2.88;2.50;;;22.40;62.10;;;;;;5012755;28;20383;-79
2023/07/24 09:44:19;;;;;;;4.70;2.40;;;22.40;62.10;;;;;;4995141;28;20033;-80
2023/07/24 09:46:46;;;;;;;5.25;2.50;;;22.40;61.90;;;;;;5012158;28;20472;-79
2023/07/24 09:49:13;;;;;;;4.18;2.70;;;22.40;62.10;;;;;;5012022;28;20524;-80
2023/07/24 09:51:39;;;;;;;3.83;2.83;;;22.40;62.70;;;;;;5012587;28;20341;-79
2023/07/24 09:54:24;;;;;;;4.45;2.13;;;22.40;61.90;;;;;;5012753;28;20018;-78
2023/07/24 09:56:52;;;;;;;3.20;2.50;;;22.50;61.20;;;;;;5012533;28;20400;-78
2023/07/24 09:59:19;;;;;;;3.35;2.40;;;22.50;61.80;;;;;;5012497;28;20022;-78
2023/07/24 10:01:47;;;;;;;2.20;1.95;;;22.50;61.60;;;;;;5011968;28;20056;-77
2023/07/24 10:04:14;;;;;;;2.75;2.30;;;22.60;61.50;;;;;;5012076;28;20036;-78
2023/07/24 10:06:43;;;;;;;2.40;2.15;;;22.60;61.60;;;;;;5012155;28;20483;-74
2023/07/24 10:09:09;;;;;;;2.75;1.85;;;22.60;61.60;;;;;;5011952;28;20037;-79
2023/07/24 10:11:34;;;;;;;5.88;2.67;;;22.60;61.70;;;;;;5011961;28;20160;-78
2023/07/24 10:14:01;;;;;;;2.35;1.95;;;22.60;61.70;;;;;;5012081;28;20061;-77
2023/07/24 10:16:27;;;;;;;2.55;1.90;;;22.60;62.40;;;;;;5011860;28;20030;-77
2023/07/24 10:18:52;;;;;;;2.92;2.05;;;22.60;61.80;;;;;;5011851;28;20057;-76
2023/07/24 10:21:25;;;;;;;2.40;1.95;;;22.60;61.90;;;;;;5011824;28;20104;-78
2023/07/24 10:23:51;;;;;;;4.55;2.38;;;22.60;61.90;;;;;;5011822;28;20133;-77
2023/07/24 10:26:23;;;;;;;4.43;2.30;;;22.60;62.00;;;;;;5011755;28;20061;-78
2023/07/24 10:28:50;;;;;;;3.13;2.20;;;22.60;62.00;;;;;;4994256;28;20021;-78
2023/07/24 10:31:26;;;;;;;3.30;1.95;;;22.60;61.90;;;;;;5012372;28;20026;-80
2023/07/24 10:33:51;;;;;;;3.63;2.67;;;22.60;62.00;;;;;;4994285;28;20026;-80
2023/07/24 10:36:19;;;;;;;3.50;2.15;;;22.70;62.00;;;;;;5011660;28;20036;-80
2023/07/24 10:38:46;;;;;;;3.00;2.15;;;22.70;62.70;;;;;;4994065;28;20464;-79
2023/07/24 10:41:13;;;;;;;3.67;2.28;;;22.90;81.00;;;;;;5011731;28;20495;-79
2023/07/24 10:43:45;;;;;;;2.88;2.10;;;22.70;62.00;;;;;;5010470;28;20022;-81
2023/07/24 10:46:12;;;;;;;3.15;2.33;;;22.80;61.90;;;;;;5012063;28;20084;-81
2023/07/24 10:48:42;;;;;;;3.25;2.13;;;22.70;62.50;;;;;;5015420;28;20109;-84
2023/07/24 10:51:09;;;;;;;;;;;22.80;61.80;;;;;;5016438;28;20369;-86
2023/07/24 10:53:40;;;;;;;3.95;1.95;;;22.80;61.60;;;;;;5016366;28;19906;-80
2023/07/24 10:56:07;;;;;;;3.90;2.20;;;22.80;61.90;;;;;;5015584;28;20014;-80
2023/07/24 10:58:35;;;;;;;2.75;2.20;;;22.80;61.90;;;;;;5015247;28;20058;-77
2023/07/24 11:01:04;;;;;;;3.60;2.30;;;22.80;61.90;;;;;;5015470;28;20022;-80
2023/07/24 11:03:31;;;;;;;2.60;1.73;;;22.80;61.80;;;;;;5015278;28;20038;-79
2023/07/24 11:05:58;;;;;;;4.50;2.60;;;22.80;61.80;;;;;;5015541;28;20054;-87
2023/07/24 11:08:25;;;;;;;3.60;2.25;;;22.80;61.70;;;;;;5015728;28;20014;-80
2023/07/24 11:10:53;;;;;;;2.03;1.83;;;22.80;62.60;;;;;;5015272;28;20057;-82
2023/07/24 11:13:28;;;;;;;2.85;2.25;;;22.80;61.80;;;;;;5014895;28;20030;-86
2023/07/24 11:15:55;;;;;;;3.13;2.35;;;22.80;61.90;;;;;;5015133;28;20079;-80
2023/07/24 11:18:24;;;;;;;1.85;1.75;;;22.80;61.90;;;;;;5014411;28;20562;-87
2023/07/24 11:20:55;;;;;;;4.13;2.60;;;22.80;62.60;;;;;;5015369;28;20021;-87
2023/07/24 11:23:25;;;;;;;4.18;2.75;;;22.80;61.90;;;;;;5015268;28;20055;-82
2023/07/24 11:25:52;;;;;;;7.30;2.95;;;22.80;61.90;;;;;;4997034;28;20109;-81
2023/07/24 11:28:18;;;;;;;5.97;2.88;;;22.90;62.50;;;;;;5014629;28;20022;-81
2023/07/24 11:30:44;;;;;;;5.00;2.28;;;22.90;61.70;;;;;;5014723;28;20387;-81
2023/07/24 11:33:14;;;;;;;4.90;2.78;;;22.90;61.70;;;;;;5014572;28;20018;-81
2023/07/24 11:35:40;;;;;;;5.55;2.60;;;23.00;61.60;;;;;;5015117;28;20069;-81
2023/07/24 11:38:10;;;;;;;4.25;2.53;;;23.10;61.70;;;;;;5014743;28;20117;-81
2023/07/24 11:40:38;;;;;;;5.68;2.53;;;23.10;61.60;;;;;;5014567;28;20025;-81
2023/07/24 11:43:04;;;;;;;5.15;2.58;;;23.00;61.50;;;;;;5014229;28;20022;-81
2023/07/24 11:45:39;;;;;;;5.00;3.10;;;23.10;61.40;;;;;;5014173;28;20049;-81
2023/07/24 11:48:10;;;;;;;4.50;2.78;;;23.10;61.70;;;;;;5014263;28;20122;-83
2023/07/24 11:50:48;;;;;;;4.45;2.70;;;23.10;61.70;;;;;;5014103;28;20050;-80
2023/07/24 11:53:31;;;;;;;3.30;2.35;;;23.10;61.80;;;;;;5014090;28;20030;-80
2023/07/24 11:55:59;;;;;;;4.82;2.55;;;23.00;61.90;;;;;;5014515;28;20025;-80
2023/07/24 11:58:27;;;;;;;3.00;2.40;;;23.00;62.10;;;;;;5013256;28;20040;-80
2023/07/24 12:00:53;;;;;;;4.18;2.70;;;23.00;62.00;;;;;;5013873;28;20042;-80
2023/07/24 12:03:25;;;;;;;4.28;2.25;;;23.00;62.00;;;;;;5012998;28;20420;-80
2023/07/24 12:05:51;;;;;;;3.45;2.67;;;23.00;62.10;;;;;;5013929;28;20026;-81
2023/07/24 12:08:19;;;;;;;5.32;2.78;;;23.10;62.10;;;;;;5013791;28;20392;-80
2023/07/24 12:10:45;;;;;;;3.15;2.20;;;23.10;62.20;;;;;;5013638;28;20048;-80
2023/07/24 12:13:12;;;;;;;3.60;2.08;;;23.10;62.20;;;;;;5014312;28;20022;-80
2023/07/24 12:15:37;;;;;;;3.08;2.20;;;23.10;62.20;;;;;;5013575;28;20068;-80
2023/07/24 12:18:04;;;;;;;2.38;1.65;;;23.10;62.10;;;;;;5013477;28;20073;-80
2023/07/24 12:20:31;;;;;;;3.25;2.30;;;23.10;62.10;;;;;;5013829;28;20081;-78
2023/07/24 12:22:57;;;;;;;2.40;2.10;;;23.10;62.10;;;;;;5013840;28;20499;-81
2023/07/24 12:25:24;;;;;;;3.20;2.40;;;23.10;62.00;;;;;;4996499;28;20111;-81
2023/07/24 12:27:50;;;;;;;3.13;1.98;;;23.10;62.00;;;;;;5013535;28;20018;-81
2023/07/24 12:30:16;;;;;;;2.50;1.60;;;23.10;61.90;;;;;;5013495;28;20097;-81
2023/07/24 12:32:43;;;;;;;4.53;2.22;;;22.90;80.40;;;;;;5013623;28;20080;-80
2023/07/24 12:35:10;;;;;;;5.05;2.72;;;23.10;61.90;;;;;;5013485;28;20018;-79
2023/07/24 12:37:36;;;;;;;2.08;1.77;;;23.10;61.80;;;;;;5013221;28;20042;-78
2023/07/24 12:40:02;;;;;;;3.17;2.10;;;23.10;61.80;;;;;;5013359;28;20030;-83
2023/07/24 12:42:28;;;;;;;3.40;2.08;;;23.10;61.80;;;;;;5013482;28;20054;-79
2023/07/24 12:44:53;;;;;;;2.70;2.05;;;23.10;61.90;;;;;;5013360;28;20504;-85
2023/07/24 12:47:19;;;;;;;3.53;2.72;;;23.10;61.90;;;;;;5013517;28;20492;-90
2023/07/24 12:49:45;;;;;;;4.07;2.17;;;23.10;62.00;;;;;;4995863;28;20069;-89